Time;durP1;ratioP1;P1;durP2;ratioP2;P2;SDS_P1;SDS_P2;PMS_P1;PMS_P2;Temp;Humidity;BMP_temperature;BMP_pressure;BME280_temperature;BME280_humidity;BME280_pressure;Samples;Min_cycle;Max_cycle;Signal;HPM_P1;HPM_P2
2022/03/05 03:36:18;;;;;;;;;;;;;;;;;;;;;
2022/03/05 05:07:05;;;;;;;75.13;42.67;;;26.50;2201.60;;;;;;4861791;29;20064;-80
2022/03/05 06:18:49;;;;;;;110.82;62.42;;;51.50;2227.20;;;;;;4824140;29;20093;-82
2022/03/05 06:21:48;;;;;;;98.68;58.35;;;51.50;2227.20;;;;;;4786977;30;20371;-82
2022/03/05 06:37:57;;;;;;;126.45;73.30;;;76.80;2227.20;;;;;;4733938;30;20544;-83
2022/03/05 06:41:03;;;;;;;106.43;58.40;;;76.90;2227.20;;;;;;4733946;30;20044;-82
2022/03/05 06:44:06;;;;;;;88.50;52.65;;;76.80;2227.20;;;;;;4733848;30;20076;-84
2022/03/05 08:07:12;;;;;;;;;;;;;;;;;;;;;
2022/03/05 08:27:36;;;;;;;80.40;53.85;;;128.40;2252.80;;;;;;4840713;29;20550;-82
2022/03/05 08:37:12;;;;;;;88.55;59.53;;;153.90;2252.80;;;;;;4783391;29;20042;-81
2022/03/05 08:39:38;;;;;;;87.68;56.85;;;128.70;2252.80;;;;;;4858364;29;20063;-79
2022/03/05 08:43:49;;;;;;;;;;;;;;;;;;;;;
2022/03/05 08:45:53;;;;;;;75.72;49.15;;;128.40;2252.80;;;;;;4847216;29;20178;-81
2022/03/05 08:48:19;;;;;;;76.00;52.38;;;153.60;2252.80;;;;;;4858613;29;20022;-81
2022/03/05 08:50:56;;;;;;;74.82;50.85;;;153.60;2252.80;;;;;;4950185;29;20037;-81
2022/03/05 08:53:22;;;;;;;74.82;49.00;;;153.80;2252.80;;;;;;4937649;29;20062;-80
2022/03/05 08:56:01;;;;;;;72.90;49.20;;;153.90;2252.80;;;;;;4938074;29;20023;-81
2022/03/05 08:58:27;;;;;;;73.47;48.00;;;154.10;2252.80;;;;;;4937764;29;20477;-82
2022/03/05 09:00:53;;;;;;;63.63;44.15;;;154.20;2252.80;;;;;;4938691;29;20023;-81
2022/03/05 09:03:20;;;;;;;67.45;45.67;;;179.20;2252.80;;;;;;4941103;29;20023;-81
2022/03/05 09:05:46;;;;;;;71.35;49.95;;;154.50;2252.80;;;;;;4941254;29;20050;-81
2022/03/05 09:08:14;;;;;;;76.78;56.10;;;179.20;2252.80;;;;;;4940858;29;20020;-79
2022/03/05 09:10:40;;;;;;;71.03;51.95;;;179.40;2252.80;;;;;;4940778;29;20023;-80
2022/03/05 09:13:05;;;;;;;71.28;49.47;;;179.40;2252.80;;;;;;4940341;29;20035;-77
2022/03/05 09:15:31;;;;;;;78.03;48.17;;;179.40;2252.80;;;;;;4940494;29;20030;-79
2022/03/05 09:17:57;;;;;;;73.20;47.33;;;179.40;2252.80;;;;;;4940736;29;20032;-80
2022/03/05 09:20:23;;;;;;;84.78;54.50;;;179.60;2252.80;;;;;;4947458;29;20027;-80
2022/03/05 09:22:49;;;;;;;62.20;42.38;;;179.70;2252.80;;;;;;4956489;29;20073;-81
2022/03/05 09:25:15;;;;;;;53.00;35.55;;;179.90;2252.80;;;;;;4958170;29;20038;-80
2022/03/05 09:27:40;;;;;;;51.92;34.65;;;180.00;2252.80;;;;;;4940548;29;20082;-80
2022/03/05 09:30:07;;;;;;;58.20;37.30;;;180.10;2252.80;;;;;;4958286;29;20023;-80
2022/03/05 09:32:33;;;;;;;48.22;33.47;;;204.80;2252.80;;;;;;4940504;29;20123;-79
2022/03/05 09:35:00;;;;;;;46.42;31.40;;;204.90;2252.80;;;;;;4940389;29;20110;-79
2022/03/05 09:37:30;;;;;;;47.72;33.22;;;204.90;2252.80;;;;;;4957634;29;20034;-80
2022/03/05 09:39:56;;;;;;;46.08;31.42;;;204.90;2252.80;;;;;;4940149;29;20123;-82
2022/03/05 09:43:00;;;;;;;48.42;31.90;;;205.00;2252.80;;;;;;4947473;29;20019;-81
2022/03/05 09:45:26;;;;;;;46.90;29.25;;;205.10;2227.20;;;;;;4956400;29;20031;-78
2022/03/05 09:47:54;;;;;;;50.08;31.75;;;205.10;2201.60;;;;;;4956973;28;20082;-75
2022/03/05 09:50:20;;;;;;;44.83;33.40;;;205.30;2252.80;;;;;;4956413;28;20454;-78
2022/03/05 09:52:47;;;;;;;44.33;31.33;;;205.30;2252.80;;;;;;4956450;29;20037;-77
2022/03/05 09:55:12;;;;;;;41.35;29.27;;;205.40;2227.20;;;;;;4955963;29;20030;-78
2022/03/05 09:57:38;;;;;;;42.88;30.00;;;205.40;2150.40;;;;;;4939856;29;20047;-74
2022/03/05 10:00:05;;;;;;;46.92;34.10;;;205.50;2073.60;;;;;;4956800;29;20098;-76
2022/03/05 10:02:32;;;;;;;36.78;26.88;;;205.70;2048.00;;;;;;4956357;29;20069;-77
2022/03/05 10:05:13;;;;;;;43.53;32.72;;;205.60;2022.40;;;;;;4938003;29;20035;-80
2022/03/05 10:07:39;;;;;;;44.47;29.35;;;205.60;2048.00;;;;;;4956605;29;20098;-83
2022/03/05 10:10:09;;;;;;;42.67;28.98;;;230.40;2099.20;;;;;;4939694;29;20122;-82
2022/03/05 10:12:40;;;;;;;47.03;32.42;;;230.50;2099.20;;;;;;4955710;28;20115;-81
2022/03/05 10:28:57;;;;;;;46.22;33.00;;;230.80;2048.00;;;;;;4956630;29;20102;-82
2022/03/05 10:34:59;;;;;;;38.22;27.20;;;231.00;2022.40;;;;;;4955172;29;20492;-81
2022/03/05 10:37:28;;;;;;;42.30;29.88;;;231.10;2022.40;;;;;;4956139;29;20358;-82
2022/03/05 10:39:54;;;;;;;39.97;28.58;;;231.30;1945.60;;;;;;4938746;29;20066;-82
2022/03/05 10:42:55;;;;;;;39.25;27.80;;;256.10;1945.60;;;;;;4946350;29;20097;-81
2022/03/05 10:45:24;;;;;;;40.55;28.88;;;256.00;1945.60;;;;;;4922445;29;20118;-83
2022/03/05 10:48:05;;;;;;;39.72;26.02;;;256.10;1868.80;;;;;;4938875;29;20099;-79
2022/03/05 10:51:03;;;;;;;31.90;21.83;;;256.10;1843.20;;;;;;4939305;29;20354;-80
2022/03/05 10:53:52;;;;;;;37.22;25.38;;;256.00;1817.60;;;;;;4896876;29;20072;-81
2022/03/05 10:59:49;;;;;;;42.33;27.58;;;231.00;1868.80;;;;;;4953289;29;20050;-79
2022/03/05 11:02:19;;;;;;;45.90;31.52;;;231.10;1868.80;;;;;;4938542;29;20198;-77
2022/03/05 11:04:47;;;;;;;41.75;26.80;;;231.00;1868.80;;;;;;4938746;29;20042;-76
2022/03/05 11:07:16;;;;;;;39.78;27.63;;;230.90;1843.20;;;;;;4938443;29;20113;-75
2022/03/05 11:09:42;;;;;;;42.85;27.73;;;231.00;1817.60;;;;;;4938517;29;20023;-76
2022/03/05 11:12:14;;;;;;;36.35;26.13;;;231.00;1817.60;;;;;;4938658;29;20346;-76
2022/03/05 11:14:43;;;;;;;37.40;24.15;;;231.20;1792.00;;;;;;4938794;29;20038;-75
2022/03/05 11:17:10;;;;;;;39.53;25.60;;;256.00;1766.40;;;;;;4938090;29;20036;-75
2022/03/05 11:19:37;;;;;;;42.15;27.25;;;256.40;1766.40;;;;;;4955418;29;20445;-75
2022/03/05 11:22:03;;;;;;;45.70;30.15;;;256.40;1766.40;;;;;;4955599;29;20050;-78
2022/03/05 11:24:40;;;;;;;42.97;29.83;;;256.20;1766.40;;;;;;4938360;29;20027;-79
2022/03/05 11:30:19;;;;;;;55.67;36.67;;;231.30;1766.40;;;;;;4896424;29;20174;-76
2022/03/05 11:32:49;;;;;;;57.07;36.87;;;256.10;1792.00;;;;;;4894898;29;20115;-79
2022/03/05 11:36:07;;;;;;;39.85;27.23;;;256.40;1715.20;;;;;;4885072;29;20259;-81
2022/03/05 11:38:38;;;;;;;49.42;31.63;;;256.70;1689.60;;;;;;4880618;29;20081;-77
2022/03/05 11:41:19;;;;;;;64.30;38.80;;;281.80;1715.20;;;;;;4928898;28;20457;-78
2022/03/05 11:43:46;;;;;;;41.90;31.13;;;282.20;1715.20;;;;;;4954263;29;20098;-76
2022/03/05 11:46:27;;;;;;;39.28;27.90;;;282.40;1689.60;;;;;;4954147;29;20476;-78
2022/03/05 11:49:07;;;;;;;35.15;23.52;;;282.30;1689.60;;;;;;4954101;29;20062;-78
2022/03/05 11:51:34;;;;;;;28.40;21.23;;;282.00;1689.60;;;;;;4955226;28;20462;-77
2022/03/05 11:54:14;;;;;;;33.08;22.25;;;281.70;1715.20;;;;;;4954190;29;20069;-78
2022/03/05 11:57:03;;;;;;;36.13;27.27;;;281.60;1715.20;;;;;;4954166;29;20113;-78
2022/03/05 11:59:32;;;;;;;33.08;24.60;;;256.90;1689.60;;;;;;4953507;29;20485;-77
2022/03/05 12:01:58;;;;;;;45.03;28.88;;;256.90;1715.20;;;;;;4954115;29;20095;-78
2022/03/05 12:04:28;;;;;;;58.65;37.88;;;256.90;1689.60;;;;;;4954195;29;20031;-78
2022/03/05 12:06:59;;;;;;;49.15;32.95;;;281.80;1715.20;;;;;;4954135;29;20035;-78
2022/03/05 12:09:37;;;;;;;47.92;36.05;;;282.20;1715.20;;;;;;4966028;28;20583;-76
2022/03/05 12:12:07;;;;;;;42.17;28.33;;;282.10;1715.20;;;;;;4959669;29;20015;-78
2022/03/05 12:14:55;;;;;;;65.40;41.17;;;281.90;1715.20;;;;;;4954682;29;20046;-79
2022/03/05 12:17:23;;;;;;;60.53;39.88;;;281.90;1715.20;;;;;;4955098;28;20023;-79
2022/03/05 12:19:49;;;;;;;53.10;36.97;;;281.70;1740.80;;;;;;4954043;29;20042;-79
2022/03/05 12:22:15;;;;;;;46.05;31.85;;;281.80;1740.80;;;;;;4953754;29;20629;-78
2022/03/05 12:24:42;;;;;;;51.53;33.92;;;281.60;1715.20;;;;;;4953920;29;20036;-79
2022/03/05 12:27:14;;;;;;;34.25;23.40;;;281.80;1715.20;;;;;;4953957;29;20027;-79
2022/03/05 12:29:48;;;;;;;46.95;31.92;;;282.10;1689.60;;;;;;4953853;29;20478;-78
2022/03/05 12:32:15;;;;;;;46.20;32.38;;;282.10;1715.20;;;;;;4953434;29;20036;-79
2022/03/05 12:34:41;;;;;;;48.15;30.85;;;282.00;1740.80;;;;;;4954916;28;20480;-78
2022/03/05 12:37:07;;;;;;;43.22;29.85;;;282.00;1740.80;;;;;;4956558;29;20023;-79
2022/03/05 12:39:33;;;;;;;68.55;42.10;;;281.90;1715.20;;;;;;4957687;29;20036;-79
2022/03/05 12:41:59;;;;;;;55.65;36.97;;;281.70;1715.20;;;;;;4957705;29;20024;-80
2022/03/05 12:44:32;;;;;;;42.80;28.27;;;281.60;1715.20;;;;;;4957245;29;20035;-79
2022/03/05 12:46:58;;;;;;;51.90;32.25;;;281.60;1740.80;;;;;;4958883;28;20027;-79
2022/03/05 12:49:24;;;;;;;36.63;25.60;;;281.60;1766.40;;;;;;4957565;29;20019;-78
2022/03/05 12:51:50;;;;;;;41.90;26.42;;;281.60;1740.80;;;;;;4957151;29;20026;-79
2022/03/05 12:54:16;;;;;;;37.97;26.77;;;281.60;1766.40;;;;;;4959198;28;20027;-80
2022/03/05 12:56:41;;;;;;;36.92;25.60;;;281.70;1740.80;;;;;;4957421;29;20063;-79
2022/03/05 12:59:07;;;;;;;49.15;34.05;;;281.80;1740.80;;;;;;4958031;28;20073;-79
2022/03/05 13:01:34;;;;;;;50.20;34.10;;;281.90;1715.20;;;;;;4957262;29;20110;-77
2022/03/05 13:04:00;;;;;;;42.33;29.75;;;282.00;1715.20;;;;;;4957288;29;20042;-78
2022/03/05 13:06:26;;;;;;;38.35;28.50;;;282.10;1715.20;;;;;;4956829;29;20027;-80
2022/03/05 13:08:52;;;;;;;39.33;29.85;;;282.30;1664.00;;;;;;4958660;28;20094;-79
2022/03/05 13:11:20;;;;;;;36.47;26.75;;;307.20;1689.60;;;;;;4956747;29;20030;-78
2022/03/05 13:13:54;;;;;;;42.33;29.55;;;307.50;1689.60;;;;;;4958275;28;20528;-79
2022/03/05 13:16:34;;;;;;;40.10;28.42;;;307.30;1689.60;;;;;;4958286;28;20020;-79
2022/03/05 13:19:02;;;;;;;44.55;31.73;;;307.30;1689.60;;;;;;4956864;29;20398;-79
2022/03/05 13:21:30;;;;;;;42.35;30.77;;;307.40;1689.60;;;;;;4956486;29;20019;-78
2022/03/05 13:23:57;;;;;;;44.78;29.88;;;307.20;1664.00;;;;;;4956345;29;20027;-78
2022/03/05 13:26:23;;;;;;;41.72;30.25;;;307.30;1689.60;;;;;;4956212;29;20118;-79
2022/03/05 13:28:51;;;;;;;42.80;31.30;;;307.30;1664.00;;;;;;4956636;29;20027;-79
2022/03/05 13:31:17;;;;;;;44.25;31.95;;;307.20;1689.60;;;;;;4956645;29;20087;-78
2022/03/05 13:33:51;;;;;;;48.95;33.25;;;282.30;1664.00;;;;;;4956663;29;20027;-79
2022/03/05 13:36:24;;;;;;;67.28;38.72;;;282.00;1689.60;;;;;;4957602;28;20023;-80
2022/03/05 13:39:02;;;;;;;46.55;32.28;;;281.60;1689.60;;;;;;4956600;29;20019;-79
2022/03/05 13:41:29;;;;;;;41.70;29.85;;;256.90;1689.60;;;;;;4956603;29;20050;-79
2022/03/05 13:43:57;;;;;;;42.88;31.55;;;256.80;1715.20;;;;;;4956046;29;20034;-79
2022/03/05 13:46:26;;;;;;;39.97;30.52;;;256.70;1740.80;;;;;;4956171;28;20053;-78
2022/03/05 13:48:57;;;;;;;44.67;31.35;;;256.50;1740.80;;;;;;4956369;29;20023;-79
2022/03/05 13:51:27;;;;;;;40.22;30.50;;;256.50;1740.80;;;;;;4956237;29;20023;-79
2022/03/05 13:53:58;;;;;;;42.47;31.55;;;256.30;1766.40;;;;;;4956246;29;20086;-79
2022/03/05 13:56:25;;;;;;;47.92;32.80;;;256.20;1766.40;;;;;;4956325;29;20110;-82
2022/03/05 13:58:57;;;;;;;46.72;32.08;;;231.00;1792.00;;;;;;4955533;29;20051;-76
2022/03/05 14:01:37;;;;;;;64.07;41.88;;;256.10;1792.00;;;;;;4955749;29;20114;-78
2022/03/05 14:04:12;;;;;;;64.57;44.95;;;256.00;1792.00;;;;;;4956746;29;20031;-79
2022/03/05 14:06:47;;;;;;;76.22;50.15;;;256.10;1817.60;;;;;;4956056;29;20090;-78
2022/03/05 14:09:26;;;;;;;49.90;34.67;;;256.10;1817.60;;;;;;4955942;29;20113;-80
2022/03/05 14:12:01;;;;;;;71.68;45.25;;;256.00;1817.60;;;;;;4955790;29;20034;-79
2022/03/05 14:14:55;;;;;;;162.40;90.75;;;256.00;1817.60;;;;;;4955805;29;20114;-79
2022/03/05 14:17:42;;;;;;;71.38;44.08;;;231.30;1843.20;;;;;;4954778;29;20077;-79
2022/03/05 14:20:18;;;;;;;60.85;38.83;;;231.30;1843.20;;;;;;4953601;29;20111;-79
2022/03/05 14:22:56;;;;;;;59.30;38.63;;;231.30;1843.20;;;;;;4954348;29;20033;-78
2022/03/05 14:25:29;;;;;;;53.67;34.55;;;231.20;1817.60;;;;;;4956610;28;20102;-78
2022/03/05 14:28:00;;;;;;;56.83;36.25;;;231.20;1817.60;;;;;;4955616;29;20019;-76
2022/03/05 14:30:28;;;;;;;62.25;40.47;;;231.20;1817.60;;;;;;4955531;29;20130;-76
2022/03/05 14:32:55;;;;;;;58.22;37.92;;;231.20;1817.60;;;;;;4956170;29;20034;-76
2022/03/05 14:35:22;;;;;;;66.60;42.95;;;231.10;1817.60;;;;;;4955480;29;20079;-76
2022/03/05 14:37:50;;;;;;;83.43;52.72;;;231.10;1792.00;;;;;;4954759;29;20029;-78
2022/03/05 14:40:20;;;;;;;84.88;50.28;;;231.10;1792.00;;;;;;4953996;29;20030;-77
2022/03/05 14:42:46;;;;;;;56.80;35.45;;;231.10;1817.60;;;;;;4954845;29;20035;-76
2022/03/05 14:45:13;;;;;;;59.10;37.33;;;231.10;1817.60;;;;;;4954975;29;20031;-77
2022/03/05 14:47:41;;;;;;;81.65;50.38;;;231.10;1817.60;;;;;;4956241;28;20023;-77
2022/03/05 14:50:10;;;;;;;64.72;43.70;;;231.00;1817.60;;;;;;4954939;29;20057;-77
2022/03/05 14:52:37;;;;;;;65.82;43.00;;;231.00;1817.60;;;;;;4955142;29;20412;-77
2022/03/05 14:55:04;;;;;;;68.28;43.97;;;231.00;1817.60;;;;;;4955873;28;20027;-74
2022/03/05 14:57:30;;;;;;;72.70;46.67;;;230.90;1843.20;;;;;;4955232;29;20054;-75
2022/03/05 14:59:56;;;;;;;60.22;40.00;;;230.90;1843.20;;;;;;4952638;28;20101;-76
2022/03/05 15:02:22;;;;;;;59.05;41.08;;;230.90;1843.20;;;;;;4955956;28;20041;-75
2022/03/05 15:04:48;;;;;;;76.95;52.22;;;230.80;1843.20;;;;;;4955883;28;20094;-74
2022/03/05 15:07:13;;;;;;;56.17;37.10;;;230.80;1843.20;;;;;;4954341;29;20060;-75
2022/03/05 15:09:40;;;;;;;80.20;49.15;;;230.80;1843.20;;;;;;4954878;29;20109;-74
2022/03/05 15:12:06;;;;;;;66.32;44.30;;;230.80;1868.80;;;;;;4955798;28;20035;-77
2022/03/05 15:14:33;;;;;;;58.80;39.55;;;230.80;1868.80;;;;;;4954471;29;20027;-76
2022/03/05 15:16:59;;;;;;;59.70;40.38;;;230.80;1894.40;;;;;;4954765;29;20581;-76
2022/03/05 15:19:25;;;;;;;57.10;39.00;;;230.70;1920.00;;;;;;4954767;29;20118;-75
2022/03/05 15:21:51;;;;;;;80.05;53.38;;;230.60;1920.00;;;;;;4955658;28;20042;-75
2022/03/05 15:24:17;;;;;;;55.85;40.58;;;230.60;1945.60;;;;;;4954310;29;20023;-74
2022/03/05 15:26:43;;;;;;;47.10;34.95;;;230.60;1945.60;;;;;;4955580;28;20071;-74
2022/03/05 15:29:09;;;;;;;58.15;40.22;;;230.50;1945.60;;;;;;4954396;29;20030;-75
2022/03/05 15:31:35;;;;;;;56.45;38.90;;;230.50;1971.20;;;;;;4961307;28;20257;-75
2022/03/05 15:34:01;;;;;;;61.65;34.42;;;230.50;1971.20;;;;;;4961092;28;20055;-75
2022/03/05 15:36:27;;;;;;;51.25;37.33;;;230.40;1971.20;;;;;;4956074;28;20048;-75
2022/03/05 15:38:54;;;;;;;44.85;31.85;;;205.70;1971.20;;;;;;4956474;28;20027;-75
2022/03/05 15:41:20;;;;;;;47.72;32.42;;;205.70;1971.20;;;;;;4954607;29;20023;-75
2022/03/05 15:43:46;;;;;;;58.03;39.30;;;205.60;1996.80;;;;;;4955085;28;20042;-73
2022/03/05 15:46:13;;;;;;;54.10;37.20;;;205.60;1996.80;;;;;;4955357;28;20469;-74
2022/03/05 15:48:41;;;;;;;51.03;35.38;;;205.50;1996.80;;;;;;4954070;29;20027;-76
2022/03/05 15:51:10;;;;;;;56.40;37.22;;;205.50;2022.40;;;;;;4944212;29;20050;-81
2022/03/05 15:53:36;;;;;;;57.80;37.60;;;205.50;2022.40;;;;;;4937935;29;20066;-77
2022/03/05 15:56:04;;;;;;;61.05;43.25;;;205.40;2048.00;;;;;;4937733;29;20027;-77
2022/03/05 15:58:30;;;;;;;58.30;40.42;;;205.30;2048.00;;;;;;4937788;29;20047;-77
2022/03/05 16:00:57;;;;;;;51.13;37.15;;;205.30;2048.00;;;;;;4937783;29;20069;-75
2022/03/05 16:03:23;;;;;;;63.05;38.95;;;205.20;2073.60;;;;;;4937660;29;20421;-76
2022/03/05 16:05:51;;;;;;;59.83;40.80;;;205.20;2073.60;;;;;;4938078;29;20347;-76
2022/03/05 16:08:18;;;;;;;61.55;38.65;;;205.20;2099.20;;;;;;4937827;29;20030;-76
2022/03/05 16:10:44;;;;;;;67.25;44.00;;;205.10;2099.20;;;;;;4955878;28;20026;-75
2022/03/05 16:13:12;;;;;;;56.55;38.88;;;205.20;2099.20;;;;;;4959361;29;20478;-76
2022/03/05 16:15:38;;;;;;;59.15;38.90;;;205.10;2099.20;;;;;;4958931;29;20457;-77
2022/03/05 16:18:05;;;;;;;56.45;38.67;;;205.10;2099.20;;;;;;4941580;29;20019;-75
2022/03/05 16:20:31;;;;;;;61.58;39.78;;;205.10;2124.80;;;;;;4942139;29;20369;-75
2022/03/05 16:22:58;;;;;;;70.05;43.05;;;205.00;2124.80;;;;;;4941780;29;20350;-76
2022/03/05 16:25:42;;;;;;;66.88;41.65;;;205.00;2124.80;;;;;;4941237;29;20028;-76
2022/03/05 16:28:09;;;;;;;60.30;43.83;;;205.00;2124.80;;;;;;4941576;29;20059;-78
2022/03/05 16:30:36;;;;;;;64.82;47.10;;;205.00;2124.80;;;;;;4941565;29;20455;-77
2022/03/05 16:33:02;;;;;;;68.65;45.63;;;205.00;2124.80;;;;;;4941375;29;20038;-77
2022/03/05 16:35:30;;;;;;;56.13;39.92;;;205.30;2124.80;;;;;;4941566;29;20067;-76
2022/03/05 16:37:56;;;;;;;57.65;40.78;;;204.90;2150.40;;;;;;4941142;29;20023;-74
2022/03/05 16:40:23;;;;;;;63.38;43.58;;;205.00;2150.40;;;;;;4941530;29;20023;-74
2022/03/05 16:42:53;;;;;;;64.10;42.53;;;204.80;2176.00;;;;;;4941116;29;20461;-75
2022/03/05 16:45:25;;;;;;;67.60;45.40;;;204.80;2176.00;;;;;;4941178;29;20023;-75
2022/03/05 16:47:53;;;;;;;82.32;56.22;;;180.10;2176.00;;;;;;4941358;29;20024;-74
2022/03/05 16:50:20;;;;;;;73.78;49.00;;;180.10;2201.60;;;;;;4941456;29;20030;-75
2022/03/05 16:52:46;;;;;;;102.88;71.18;;;180.10;2227.20;;;;;;4941811;29;20572;-73
2022/03/05 16:55:16;;;;;;;76.28;60.97;;;180.00;2252.80;;;;;;4941203;29;20481;-75
2022/03/05 16:57:44;;;;;;;96.93;74.25;;;204.90;2252.80;;;;;;4940795;29;20031;-76
2022/03/05 17:00:11;;;;;;;83.40;57.53;;;179.70;2252.80;;;;;;4941196;29;20027;-75
2022/03/05 17:02:39;;;;;;;134.85;80.43;;;179.60;2252.80;;;;;;4941112;29;20027;-73
2022/03/05 17:05:07;;;;;;;72.53;48.53;;;179.60;2252.80;;;;;;4941013;29;20023;-73
2022/03/05 17:07:33;;;;;;;71.63;49.58;;;179.40;2252.80;;;;;;4940872;29;20028;-74
2022/03/05 17:10:01;;;;;;;80.45;54.60;;;179.40;2252.80;;;;;;4940788;29;20026;-74
2022/03/05 17:12:31;;;;;;;105.85;66.28;;;179.40;2252.80;;;;;;4940434;29;20374;-73
2022/03/05 17:14:58;;;;;;;80.70;54.45;;;179.20;2252.80;;;;;;4940677;29;20099;-73
2022/03/05 17:18:02;;;;;;;116.47;76.80;;;179.20;2252.80;;;;;;4940873;29;20023;-75
2022/03/05 17:25:12;;;;;;;64.78;46.25;;;154.50;2252.80;;;;;;4879574;29;20033;-76
2022/03/05 17:54:41;;;;;;;118.60;68.43;;;128.40;2252.80;;;;;;4956303;29;20038;-75
2022/03/05 17:57:07;;;;;;;96.80;63.63;;;153.80;2252.80;;;;;;4915286;29;20405;-82
2022/03/05 18:00:20;;;;;;;80.85;52.70;;;153.80;2252.80;;;;;;4913283;29;20056;-79
2022/03/05 18:03:20;;;;;;;;;;;;;;;;;;;;;
2022/03/05 18:06:12;;;;;;;226.52;125.32;;;153.70;2252.80;;;;;;4935370;29;20028;-79
2022/03/05 18:08:54;;;;;;;109.17;71.07;;;153.60;2252.80;;;;;;4919236;29;20032;-79
2022/03/05 18:11:37;;;;;;;94.43;66.30;;;128.90;2252.80;;;;;;4919322;29;20843;-80
2022/03/05 18:14:29;;;;;;;;;;;153.60;2252.80;;;;;;4934898;29;20032;-78
2022/03/05 18:20:33;;;;;;;72.05;47.97;;;128.90;2252.80;;;;;;4935204;29;20059;-80
2022/03/05 18:26:10;;;;;;;101.57;59.45;;;128.60;2252.80;;;;;;4937324;28;20078;-78
2022/03/05 18:29:10;;;;;;;98.97;60.95;;;128.70;2252.80;;;;;;4955323;29;20027;-80
2022/03/05 18:32:15;;;;;;;86.47;58.25;;;128.70;2252.80;;;;;;4954912;29;20386;-79
2022/03/05 18:34:51;;;;;;;96.57;62.17;;;128.60;2252.80;;;;;;4954036;28;20035;-81
2022/03/05 18:37:51;;;;;;;90.03;57.75;;;128.50;2252.80;;;;;;4954749;29;20030;-80
2022/03/05 18:40:26;;;;;;;149.15;88.80;;;128.70;2252.80;;;;;;4939081;29;20030;-77
2022/03/05 18:43:06;;;;;;;292.23;151.45;;;128.70;2252.80;;;;;;4936643;29;20062;-80
2022/03/05 18:45:37;;;;;;;126.32;81.95;;;128.70;2252.80;;;;;;4938502;29;20031;-80
2022/03/05 18:48:21;;;;;;;211.48;120.47;;;128.70;2252.80;;;;;;4937563;29;20034;-79
2022/03/05 18:50:55;;;;;;;220.70;127.45;;;128.70;2252.80;;;;;;4936649;29;20118;-81
2022/03/05 18:53:33;;;;;;;90.43;61.45;;;128.70;2252.80;;;;;;4938478;29;20031;-80
2022/03/05 18:56:12;;;;;;;184.00;100.38;;;128.70;2252.80;;;;;;4938265;29;20503;-80
2022/03/05 18:58:46;;;;;;;260.67;133.85;;;128.70;2252.80;;;;;;4938991;29;20110;-80
2022/03/05 19:01:44;;;;;;;;;;;;;;;;;;;;;
2022/03/05 19:04:29;;;;;;;130.18;76.93;;;128.60;2252.80;;;;;;4955784;29;20034;-80
2022/03/05 19:06:55;;;;;;;134.88;88.18;;;128.40;2252.80;;;;;;4937940;29;20047;-78
2022/03/05 19:09:26;;;;;;;291.02;159.05;;;128.80;2252.80;;;;;;4938559;29;20027;-78
2022/03/05 19:11:59;;;;;;;185.32;111.55;;;128.50;2252.80;;;;;;4938295;29;20023;-79
2022/03/05 19:14:25;;;;;;;174.40;102.95;;;128.50;2252.80;;;;;;4938412;29;20027;-81
2022/03/05 19:16:51;;;;;;;181.07;105.75;;;128.40;2252.80;;;;;;4938582;29;20034;-80
2022/03/05 19:19:17;;;;;;;183.70;105.57;;;128.70;2252.80;;;;;;4938357;29;20027;-81
2022/03/05 19:21:43;;;;;;;179.73;101.53;;;128.40;2252.80;;;;;;4938802;29;20078;-80
2022/03/05 19:24:09;;;;;;;242.52;133.98;;;128.40;2252.80;;;;;;4938328;29;20461;-78
2022/03/05 19:26:35;;;;;;;139.57;86.80;;;128.30;2252.80;;;;;;4938311;29;20457;-79
2022/03/05 19:29:03;;;;;;;129.60;78.85;;;128.40;2252.80;;;;;;4939618;29;20074;-77
2022/03/05 19:31:29;;;;;;;180.93;106.53;;;128.40;2252.80;;;;;;4948543;29;20019;-80
2022/03/05 19:33:55;;;;;;;135.15;81.60;;;128.40;2252.80;;;;;;4938256;29;20532;-79
2022/03/05 19:36:24;;;;;;;165.13;99.10;;;153.60;2252.80;;;;;;4938537;29;20117;-78
2022/03/05 19:39:20;;;;;;;118.15;72.57;;;128.40;2252.80;;;;;;4938157;29;20028;-79
2022/03/05 19:41:46;;;;;;;101.82;61.25;;;128.40;2252.80;;;;;;4933428;29;20477;-76
2022/03/05 19:44:12;;;;;;;110.43;69.72;;;128.40;2252.80;;;;;;4938067;28;20114;-81
2022/03/05 19:46:44;;;;;;;108.22;64.15;;;128.30;2252.80;;;;;;4938409;29;20130;-76
2022/03/05 19:49:19;;;;;;;110.03;66.43;;;128.40;2252.80;;;;;;4937806;29;20480;-78
2022/03/05 19:51:44;;;;;;;146.38;83.28;;;128.40;2252.80;;;;;;4934089;29;20040;-79
2022/03/05 19:54:15;;;;;;;142.93;88.88;;;128.40;2252.80;;;;;;4934493;29;20458;-77
2022/03/05 19:56:50;;;;;;;121.03;76.07;;;128.30;2252.80;;;;;;4934747;29;20485;-76
2022/03/05 19:59:16;;;;;;;130.65;83.72;;;128.20;2252.80;;;;;;4934956;29;20043;-78
2022/03/05 20:01:42;;;;;;;117.68;78.75;;;128.20;2252.80;;;;;;4934554;29;20024;-78
2022/03/05 20:04:08;;;;;;;105.20;71.50;;;128.10;2252.80;;;;;;4934909;29;20030;-77
2022/03/05 20:06:39;;;;;;;105.40;73.32;;;128.00;2252.80;;;;;;4934931;29;20015;-80
2022/03/05 20:09:06;;;;;;;135.10;86.18;;;103.30;2227.20;;;;;;4934702;29;20097;-81
2022/03/05 20:11:32;;;;;;;128.45;80.55;;;103.20;2227.20;;;;;;4934786;29;20746;-77
2022/03/05 20:13:58;;;;;;;117.55;77.18;;;103.20;2227.20;;;;;;4934385;29;20031;-75
2022/03/05 20:16:41;;;;;;;131.90;85.72;;;103.20;2227.20;;;;;;4934235;29;20032;-77
2022/03/05 20:19:07;;;;;;;128.85;78.97;;;103.30;2227.20;;;;;;4918687;29;20486;-82
2022/03/05 20:21:33;;;;;;;150.70;83.75;;;103.20;2227.20;;;;;;4934920;29;20024;-79
2022/03/05 20:25:04;;;;;;;;;;;;;;;;;;;;;
2022/03/05 20:27:30;;;;;;;163.20;89.20;;;103.10;2227.20;;;;;;4935573;29;20022;-79
2022/03/05 20:29:56;;;;;;;141.23;89.97;;;102.90;2227.20;;;;;;4934424;29;20020;-80
2022/03/05 20:32:22;;;;;;;195.80;133.48;;;102.90;2227.20;;;;;;4934528;29;20028;-79
2022/03/05 21:30:05;;;;;;;102.10;63.42;;;102.50;2227.20;;;;;;4898910;29;20366;-75
2022/03/05 21:32:40;;;;;;;85.22;55.78;;;102.40;2227.20;;;;;;4941431;29;20117;-77
2022/03/05 21:35:12;;;;;;;99.72;60.67;;;102.40;2227.20;;;;;;4940613;29;20066;-77
2022/03/05 21:37:38;;;;;;;124.33;82.73;;;102.40;2227.20;;;;;;4940687;29;20034;-80
2022/03/05 21:40:22;;;;;;;162.57;97.82;;;102.40;2227.20;;;;;;4940224;29;20027;-73
2022/03/05 21:46:34;;;;;;;138.32;87.57;;;77.70;2227.20;;;;;;4957242;29;20067;-74
2022/03/05 22:11:19;;;;;;;127.72;77.97;;;77.60;2227.20;;;;;;4957069;29;20034;-75
2022/03/05 22:14:34;;;;;;;135.45;82.07;;;77.50;2227.20;;;;;;4897135;29;20040;-73
2022/03/05 22:17:08;;;;;;;125.68;76.90;;;77.40;2227.20;;;;;;4897186;29;20049;-75
2022/03/05 22:20:02;;;;;;;112.55;73.88;;;77.40;2227.20;;;;;;4935456;29;20043;-74
2022/03/05 22:22:31;;;;;;;109.07;68.82;;;77.50;1996.80;;;;;;4929734;29;20090;-73
2022/03/05 22:25:00;;;;;;;118.55;77.28;;;77.40;2227.20;;;;;;4938475;29;20027;-79
2022/03/05 22:27:26;;;;;;;137.60;88.45;;;77.30;2227.20;;;;;;4938637;29;20027;-74
2022/03/05 22:29:52;;;;;;;134.60;84.07;;;77.30;2201.60;;;;;;4938363;29;20019;-77
2022/03/05 22:32:18;;;;;;;153.18;95.53;;;77.40;2227.20;;;;;;4938503;29;20517;-76
2022/03/05 22:34:44;;;;;;;159.07;98.07;;;77.30;1894.40;;;;;;4939787;29;20027;-74
2022/03/05 22:37:10;;;;;;;165.27;104.90;;;77.40;2227.20;;;;;;4945863;29;20051;-77
2022/03/05 22:39:38;;;;;;;139.77;89.25;;;77.30;2227.20;;;;;;4938813;29;20043;-77
2022/03/05 22:42:04;;;;;;;192.55;123.25;;;77.30;2227.20;;;;;;4938075;29;20031;-78
2022/03/05 22:44:30;;;;;;;143.18;94.40;;;77.30;2227.20;;;;;;4938210;29;20098;-78
2022/03/05 22:46:56;;;;;;;126.60;79.88;;;77.30;2227.20;;;;;;4938386;29;20059;-78
2022/03/05 22:49:22;;;;;;;136.20;87.35;;;77.20;2227.20;;;;;;4956280;29;20027;-78
2022/03/05 22:51:48;;;;;;;178.73;114.10;;;77.20;2227.20;;;;;;4956623;29;20030;-77
2022/03/05 22:54:13;;;;;;;166.98;105.78;;;77.20;2201.60;;;;;;4956531;29;20452;-77
2022/03/05 22:56:39;;;;;;;167.10;103.70;;;77.30;2227.20;;;;;;4956458;29;20106;-77
2022/03/05 22:59:05;;;;;;;168.20;105.40;;;77.20;2227.20;;;;;;4938968;29;20507;-76
2022/03/05 23:01:31;;;;;;;144.27;89.18;;;77.20;2227.20;;;;;;4956167;29;20031;-77